createdAt,value
2023-02-27T00:00:42.996Z,6.28
2023-02-27T00:05:41.380Z,6.40
2023-02-27T00:10:38.021Z,5.75
2023-02-27T00:15:34.549Z,6.25
2023-02-27T00:20:32.322Z,5.95
2023-02-27T00:25:28.754Z,6.40
2023-02-27T00:30:26.461Z,6.93
2023-02-27T00:35:22.936Z,7.05
2023-02-27T00:40:19.638Z,6.70
2023-02-27T00:45:16.117Z,6.60
2023-02-27T00:50:14.391Z,5.38
2023-02-27T00:55:11.161Z,6.90
2023-02-27T01:00:09.186Z,6.22
2023-02-27T01:05:06.459Z,6.25
2023-02-27T01:10:04.053Z,6.20
2023-02-27T01:15:00.489Z,6.07
2023-02-27T01:19:56.943Z,6.63
2023-02-27T01:24:53.325Z,6.38
2023-02-27T01:29:49.779Z,6.57
2023-02-27T01:34:46.171Z,6.43
2023-02-27T01:39:42.690Z,6.68
2023-02-27T01:45:11.032Z,6.07
2023-02-27T01:50:08.513Z,6.63
2023-02-27T01:55:08.568Z,6.15
2023-02-27T02:00:06.130Z,6.45
2023-02-27T02:10:16.128Z,7.00
2023-02-27T02:15:12.785Z,6.10
2023-02-27T02:20:26.910Z,6.35
2023-02-27T02:25:47.430Z,6.47
2023-02-27T02:31:19.504Z,6.50
2023-02-27T02:36:58.798Z,6.65
2023-02-27T02:42:24.151Z,5.90
2023-02-27T02:47:44.169Z,5.88
2023-02-27T02:52:54.727Z,5.90
2023-02-27T02:58:06.688Z,5.88
2023-02-27T03:03:19.097Z,6.03
2023-02-27T03:08:20.918Z,6.07
2023-02-27T03:13:41.931Z,6.45
2023-02-27T03:18:45.508Z,5.97
2023-02-27T03:23:47.435Z,6.78
2023-02-27T03:28:53.906Z,6.82
2023-02-27T03:33:55.756Z,6.88
2023-02-27T03:39:02.770Z,6.30
2023-02-27T03:44:09.214Z,6.53
2023-02-27T03:49:06.539Z,6.70
2023-02-27T03:54:13.677Z,6.72
2023-02-27T03:59:10.270Z,6.93
2023-02-27T04:04:15.620Z,7.13
2023-02-27T04:09:27.062Z,6.95
2023-02-27T04:14:47.402Z,7.05
2023-02-27T04:20:31.880Z,6.85
2023-02-27T04:25:52.827Z,7.30
2023-02-27T04:31:10.127Z,8.52
2023-02-27T04:36:27.047Z,7.25
2023-02-27T04:41:29.177Z,7.80
2023-02-27T04:51:47.472Z,7.00
2023-02-27T04:56:52.582Z,7.80
2023-02-27T05:02:02.927Z,7.88
2023-02-27T05:07:01.844Z,7.65
2023-02-27T05:12:13.884Z,8.45
2023-02-27T05:17:21.947Z,7.90
2023-02-27T05:22:32.680Z,7.50
2023-02-27T05:27:56.772Z,7.55
2023-02-27T05:33:06.803Z,9.05
2023-02-27T05:38:25.326Z,9.18
2023-02-27T05:43:27.580Z,10.55
2023-02-27T05:53:33.293Z,10.00
2023-02-27T05:58:41.604Z,9.32
2023-02-27T06:03:40.154Z,11.85
2023-02-27T06:08:36.587Z,10.48
2023-02-27T06:13:33.015Z,9.98
2023-02-27T06:18:29.456Z,10.05
2023-02-27T06:23:25.829Z,10.85
2023-02-27T06:28:22.239Z,10.43
2023-02-27T06:33:18.667Z,10.38
2023-02-27T06:38:15.226Z,11.68
2023-02-27T06:43:11.655Z,11.27
2023-02-27T06:48:08.570Z,10.95
2023-02-27T06:53:05.125Z,11.32
2023-02-27T06:58:01.677Z,11.32
2023-02-27T07:02:58.091Z,12.60
2023-02-27T07:07:54.470Z,11.45
2023-02-27T07:12:50.947Z,11.98
2023-02-27T07:17:47.418Z,12.13
2023-02-27T07:22:43.804Z,11.68
2023-02-27T07:27:40.240Z,12.85
2023-02-27T07:32:36.691Z,12.20
2023-02-27T07:37:33.117Z,12.40
2023-02-27T07:42:30.003Z,13.75
2023-02-27T07:47:26.629Z,12.77
2023-02-27T07:52:24.185Z,13.48
2023-02-27T07:57:20.593Z,13.23
2023-02-27T08:02:17.002Z,12.68
2023-02-27T08:07:13.442Z,13.45
2023-02-27T08:12:09.830Z,13.70
2023-02-27T08:17:06.260Z,13.75
2023-02-27T08:22:03.504Z,12.88
2023-02-27T08:26:59.923Z,12.75
2023-02-27T08:31:56.400Z,12.15
2023-02-27T08:36:53.608Z,12.55
2023-02-27T08:41:52.402Z,12.60
2023-02-27T08:46:48.847Z,11.80
2023-02-27T08:51:45.269Z,11.85
2023-02-27T08:56:41.677Z,12.27
2023-02-27T09:01:38.093Z,11.18
2023-02-27T09:06:35.968Z,9.50
2023-02-27T09:11:32.862Z,9.77
2023-02-27T09:16:29.775Z,7.13
2023-02-27T09:21:26.510Z,6.68
2023-02-27T09:26:35.730Z,7.20
2023-02-27T09:31:37.299Z,5.88
2023-02-27T09:36:34.202Z,6.05
2023-02-27T09:41:53.164Z,5.93
2023-02-27T09:46:49.999Z,4.85
2023-02-27T09:51:46.952Z,5.35
2023-02-27T09:56:58.621Z,5.07
2023-02-27T10:02:12.758Z,5.30
2023-02-27T10:07:23.316Z,4.45
2023-02-27T10:12:32.254Z,4.70
2023-02-27T10:17:32.098Z,4.93
2023-02-27T10:22:33.539Z,4.90
2023-02-27T10:27:31.224Z,5.05
2023-02-27T10:32:32.625Z,4.85
2023-02-27T10:37:30.284Z,4.93
2023-02-27T10:42:31.317Z,4.55
2023-02-27T10:47:28.092Z,5.95
2023-02-27T10:52:27.438Z,5.20
2023-02-27T10:57:42.083Z,4.80
2023-02-27T11:02:41.958Z,5.07
2023-02-27T11:07:39.090Z,5.07
2023-02-27T11:12:35.528Z,5.13
2023-02-27T11:17:34.396Z,6.18
2023-02-27T11:22:32.268Z,5.00
2023-02-27T11:27:30.399Z,5.57
2023-02-27T11:32:36.627Z,5.95
2023-02-27T11:37:36.994Z,5.43
2023-02-27T11:42:36.005Z,5.13
2023-02-27T11:47:36.013Z,5.57
2023-02-27T11:52:44.336Z,5.22
2023-02-27T11:57:43.706Z,5.13
2023-02-27T12:03:12.305Z,5.00
2023-02-27T12:08:21.887Z,5.65
2023-02-27T12:13:23.038Z,5.80
2023-02-27T12:18:35.611Z,5.32
2023-02-27T12:23:40.297Z,4.90
2023-02-27T12:28:45.695Z,5.55
2023-02-27T12:33:51.479Z,4.90
2023-02-27T12:38:47.852Z,5.88
2023-02-27T12:44:10.422Z,5.70
2023-02-27T12:49:22.019Z,6.20
2023-02-27T12:54:38.950Z,5.93
2023-02-27T12:59:57.002Z,5.53
2023-02-27T13:05:47.883Z,5.07
2023-02-27T13:11:03.193Z,5.10
2023-02-27T13:16:36.529Z,4.43
2023-02-27T13:21:51.377Z,4.90
2023-02-27T13:27:06.825Z,4.57
2023-02-27T13:32:36.524Z,4.72
2023-02-27T13:38:02.154Z,4.60
2023-02-27T13:43:05.939Z,4.80
2023-02-27T13:48:02.321Z,4.47
2023-02-27T13:53:09.762Z,5.15
2023-02-27T13:58:06.532Z,5.13
2023-02-27T14:03:07.364Z,5.28
2023-02-27T14:08:06.793Z,5.25
2023-02-27T14:13:04.345Z,5.38
2023-02-27T14:18:15.651Z,4.70
2023-02-27T14:23:18.496Z,4.68
2023-02-27T14:28:20.929Z,5.60
2023-02-27T14:38:38.206Z,4.57
2023-02-27T14:43:39.779Z,4.18
2023-02-27T14:48:37.832Z,5.20
2023-02-27T14:53:34.728Z,4.22
2023-02-27T14:58:31.149Z,3.88
2023-02-27T15:03:34.503Z,5.20
2023-02-27T15:08:36.623Z,4.30
2023-02-27T15:13:36.502Z,5.05
2023-02-27T15:18:32.865Z,4.50
2023-02-27T15:23:29.402Z,4.90
2023-02-27T15:28:37.123Z,4.70
2023-02-27T15:33:33.965Z,4.75
2023-02-27T15:38:35.881Z,4.63
2023-02-27T15:43:32.714Z,4.13
2023-02-27T15:48:29.960Z,4.75
2023-02-27T15:53:28.877Z,4.88
2023-02-27T15:58:31.062Z,4.85
2023-02-27T16:03:35.504Z,5.57
2023-02-27T16:08:31.959Z,5.60
2023-02-27T16:13:31.552Z,5.65
2023-02-27T16:18:45.689Z,6.00
2023-02-27T16:23:43.028Z,6.40
2023-02-27T16:28:51.047Z,6.68
2023-02-27T16:33:47.564Z,6.45
2023-02-27T16:38:44.803Z,6.53
2023-02-27T16:43:41.810Z,6.68
2023-02-27T16:48:38.229Z,6.05
2023-02-27T16:53:34.607Z,6.53
2023-02-27T16:58:31.033Z,6.82
2023-02-27T17:03:28.008Z,6.03
2023-02-27T17:08:24.395Z,6.65
2023-02-27T17:13:20.774Z,6.28
2023-02-27T17:18:17.153Z,6.68
2023-02-27T17:23:14.503Z,6.57
2023-02-27T17:28:11.682Z,7.20
2023-02-27T17:33:09.195Z,7.38
2023-02-27T17:38:07.420Z,7.50
2023-02-27T17:43:04.192Z,6.72
2023-02-27T17:48:00.610Z,6.70
2023-02-27T17:52:56.976Z,6.75
2023-02-27T17:57:53.396Z,6.22
2023-02-27T18:02:51.025Z,6.28
2023-02-27T18:07:48.022Z,6.47
2023-02-27T18:12:44.830Z,6.22
2023-02-27T18:17:43.410Z,5.80
2023-02-27T18:22:39.779Z,6.18
2023-02-27T18:27:36.337Z,5.95
2023-02-27T18:32:32.717Z,5.70
2023-02-27T18:37:29.082Z,6.32
2023-02-27T18:42:25.601Z,6.32
2023-02-27T18:47:21.978Z,6.00
2023-02-27T18:52:18.539Z,5.72
2023-02-27T18:57:15.343Z,6.18
2023-02-27T19:02:14.663Z,5.65
2023-02-27T19:07:11.615Z,6.07
2023-02-27T19:12:10.595Z,6.20
2023-02-27T19:17:07.283Z,5.65
2023-02-27T19:22:03.745Z,5.60
2023-02-27T19:27:00.197Z,5.85
2023-02-27T19:31:56.599Z,6.05
2023-02-27T19:36:53.055Z,5.40
2023-02-27T19:41:49.479Z,5.93
2023-02-27T19:46:51.063Z,5.63
2023-02-27T19:51:47.525Z,5.87
2023-02-27T19:56:43.902Z,6.88
2023-02-27T20:01:41.399Z,6.82
2023-02-27T20:06:41.552Z,6.75
2023-02-27T20:11:38.015Z,6.47
2023-02-27T20:16:36.638Z,6.53
2023-02-27T20:21:34.194Z,6.43
2023-02-27T20:26:37.032Z,6.57
2023-02-27T20:31:35.658Z,6.00
2023-02-27T20:36:35.648Z,6.00
2023-02-27T20:41:34.478Z,6.40
2023-02-27T20:46:31.424Z,6.13
2023-02-27T20:51:36.648Z,5.72
2023-02-27T20:56:35.206Z,5.60
2023-02-27T21:01:32.210Z,5.30
2023-02-27T21:06:30.375Z,5.05
2023-02-27T21:11:29.685Z,4.80
2023-02-27T21:16:26.373Z,4.72
2023-02-27T21:21:25.592Z,5.28
2023-02-27T21:26:26.231Z,5.55
2023-02-27T21:31:24.992Z,4.95
2023-02-27T21:36:29.507Z,5.32
2023-02-27T21:41:26.787Z,4.93
2023-02-27T21:46:23.310Z,5.90
2023-02-27T21:51:36.816Z,5.72
2023-02-27T21:56:35.518Z,5.40
2023-02-27T22:01:33.447Z,5.13
2023-02-27T22:06:32.160Z,5.05
2023-02-27T22:11:29.793Z,5.50
2023-02-27T22:16:27.630Z,5.55
2023-02-27T22:21:25.977Z,5.15
2023-02-27T22:26:25.759Z,4.70
2023-02-27T22:31:24.618Z,5.07
2023-02-27T22:36:25.303Z,5.65
2023-02-27T22:41:29.156Z,5.20
2023-02-27T22:46:28.587Z,5.18
2023-02-27T22:51:27.704Z,4.32
2023-02-27T22:56:24.789Z,4.82
2023-02-27T23:01:24.041Z,4.45
2023-02-27T23:06:28.874Z,4.35
2023-02-27T23:11:25.373Z,4.28
2023-02-27T23:16:21.849Z,4.78
2023-02-27T23:21:20.650Z,4.20
2023-02-27T23:26:17.060Z,4.32
2023-02-27T23:31:15.210Z,4.07
2023-02-27T23:36:11.877Z,4.05
2023-02-27T23:41:09.885Z,4.32
2023-02-27T23:46:08.745Z,5.13
2023-02-27T23:51:06.341Z,4.32
2023-02-27T23:56:12.707Z,4.22
